Time;durP1;ratioP1;P1;durP2;ratioP2;P2;SDS_P1;SDS_P2;PMS_P1;PMS_P2;Temp;Humidity;BMP_temperature;BMP_pressure;BME280_temperature;BME280_humidity;BME280_pressure;Samples;Min_cycle;Max_cycle;Signal;HPM_P1;HPM_P2
2021/10/13 00:01:31;;;;;;;;;4.00;4.00;;;;;21.66;44.50;101902.13;5017292;28;45540;-54
2021/10/13 00:03:56;;;;;;;;;4.75;3.50;;;;;21.65;44.34;101901.25;5016436;28;48163;-55
2021/10/13 00:06:21;;;;;;;;;4.75;4.75;;;;;21.66;44.31;101907.41;5016542;28;47995;-51
2021/10/13 00:08:47;;;;;;;;;5.00;3.50;;;;;21.64;44.51;101915.38;5017003;28;45612;-54
2021/10/13 00:11:12;;;;;;;;;4.00;3.00;;;;;21.65;44.43;101908.31;5017031;28;45412;-52
2021/10/13 00:13:38;;;;;;;;;3.50;3.50;;;;;21.64;44.54;101910.09;4998726;28;45729;-54
2021/10/13 00:16:04;;;;;;;;;3.00;3.00;;;;;21.65;44.56;101903.88;5016585;28;45466;-52
2021/10/13 00:18:30;;;;;;;;;4.00;4.00;;;;;21.64;44.43;101906.59;5016742;28;45389;-52
2021/10/13 00:20:55;;;;;;;;;3.25;3.25;;;;;21.65;44.37;101905.69;5015710;28;45593;-50
2021/10/13 00:23:20;;;;;;;;;4.00;4.00;;;;;21.64;44.09;101903.97;5016749;28;45591;-53
2021/10/13 00:25:46;;;;;;;;;3.25;3.25;;;;;21.62;44.35;101899.63;5016464;28;45464;-53
2021/10/13 00:28:11;;;;;;;;;3.00;3.00;;;;;21.62;44.25;101904.00;4998601;28;45416;-53
2021/10/13 00:30:37;;;;;;;;;3.25;3.25;;;;;21.64;44.25;101911.88;5016483;28;45556;-55
2021/10/13 00:33:02;;;;;;;;;4.00;3.00;;;;;21.63;44.36;101911.00;5016329;28;46482;-55
2021/10/13 00:35:27;;;;;;;;;3.25;2.75;;;;;21.61;44.18;101920.75;5016208;28;45436;-53
2021/10/13 00:37:53;;;;;;;;;4.25;3.25;;;;;21.59;44.36;101909.44;5016477;28;45754;-52
2021/10/13 00:40:18;;;;;;;;;4.75;3.75;;;;;21.61;44.66;101918.13;5016944;28;45156;-51
2021/10/13 00:42:43;;;;;;;;;6.25;6.00;;;;;21.61;44.21;101929.56;5016113;28;46463;-51
2021/10/13 00:45:09;;;;;;;;;3.50;3.50;;;;;21.60;44.53;101925.19;5016277;28;45243;-50
2021/10/13 00:47:35;;;;;;;;;4.25;4.00;;;;;21.60;44.50;101929.63;5016385;28;45310;-52
2021/10/13 00:50:02;;;;;;;;;2.00;2.00;;;;;21.58;44.48;101926.16;5016277;28;45515;-55
2021/10/13 00:52:28;;;;;;;;;2.50;2.50;;;;;21.59;44.47;101933.19;5016017;28;46417;-52
2021/10/13 00:54:54;;;;;;;;;4.00;4.00;;;;;21.57;44.21;101933.19;5016069;28;45460;-50
2021/10/13 00:57:19;;;;;;;;;3.25;3.25;;;;;21.58;44.54;101932.28;5016719;28;45397;-52
2021/10/13 00:59:44;;;;;;;;;4.00;2.75;;;;;21.60;44.58;101942.81;5016369;28;45385;-55
2021/10/13 01:02:15;;;;;;;;;7.25;4.00;;;;;21.58;44.74;101937.56;5015882;28;46293;-55
2021/10/13 01:04:50;;;;;;;;;3.00;2.00;;;;;21.58;44.40;101948.09;5015721;28;45786;-55
2021/10/13 01:07:48;;;;;;;;;3.25;3.00;;;;;21.58;44.29;101937.56;5016130;28;45431;-55
2021/10/13 01:10:30;;;;;;;;;4.00;3.00;;;;;21.58;44.35;101948.09;4928497;28;45685;-54
2021/10/13 01:13:09;;;;;;;;;5.25;3.00;;;;;21.58;44.40;101947.25;5015785;28;45491;-53
2021/10/13 01:15:53;;;;;;;;;4.50;3.00;;;;;21.58;44.21;101948.09;5014369;28;46165;-54
2021/10/13 01:18:39;;;;;;;;;3.25;3.25;;;;;21.57;44.58;101956.94;5016013;28;45334;-53
2021/10/13 01:21:45;;;;;;;;;3.50;3.00;;;;;21.57;44.57;101951.66;5016082;28;45345;-55
2021/10/13 01:24:34;;;;;;;;;2.00;2.00;;;;;21.57;44.24;101945.53;5015685;28;45760;-52
2021/10/13 01:27:35;;;;;;;;;3.75;3.00;;;;;21.57;44.25;101937.63;4969402;28;45488;-54
2021/10/13 01:30:04;;;;;;;;;1.75;1.25;;;;;21.56;44.20;101946.47;5015940;28;45428;-53
2021/10/13 01:32:35;;;;;;;;;3.00;3.00;;;;;21.54;44.63;101951.81;5017556;28;45596;-54
2021/10/13 01:35:03;;;;;;;;;4.50;3.00;;;;;21.55;44.40;101955.31;5019136;28;45511;-51
2021/10/13 01:37:45;;;;;;;;;2.75;2.75;;;;;21.55;44.23;101953.50;5001335;28;45961;-51
2021/10/13 01:40:15;;;;;;;;;3.00;3.00;;;;;21.54;44.35;101949.19;5019293;28;45445;-50
2021/10/13 01:42:45;;;;;;;;;4.00;3.00;;;;;21.54;44.56;101950.94;5019271;28;45653;-53
2021/10/13 01:45:11;;;;;;;;;2.25;2.25;;;;;21.54;44.21;101957.09;5018805;28;45668;-52
2021/10/13 01:47:39;;;;;;;;;6.50;4.00;;;;;21.56;44.40;101952.59;5018911;28;45294;-51
2021/10/13 01:50:06;;;;;;;;;4.25;4.25;;;;;21.53;44.28;101955.38;5018743;28;45480;-52
2021/10/13 01:52:33;;;;;;;;;2.00;2.00;;;;;21.54;44.46;101948.31;5019155;28;45589;-49
2021/10/13 01:55:00;;;;;;;;;3.00;3.00;;;;;21.53;44.34;101944.81;5018767;28;45494;-51
2021/10/13 01:57:27;;;;;;;;;5.00;4.00;;;;;21.53;44.56;101954.50;5018977;28;45768;-50
2021/10/13 01:59:56;;;;;;;;;2.25;2.25;;;;;21.52;44.44;101953.66;5019189;28;45175;-51
2021/10/13 02:02:29;;;;;;;;;6.00;3.00;;;;;21.53;44.42;101965.94;5019297;28;45298;-52
2021/10/13 02:04:56;;;;;;;;;3.00;3.00;;;;;21.51;44.23;101954.56;5001145;28;47597;-49
2021/10/13 02:07:23;;;;;;;;;2.00;2.00;;;;;21.52;44.32;101961.56;5019032;28;45286;-51
2021/10/13 02:09:52;;;;;;;;;4.00;3.00;;;;;21.50;44.25;101960.78;5018717;28;45317;-54
2021/10/13 02:12:21;;;;;;;;;3.25;3.00;;;;;21.51;44.55;101965.13;5019041;28;45278;-50
2021/10/13 02:14:48;;;;;;;;;3.50;2.75;;;;;21.51;44.46;101964.25;5018448;28;46538;-54
2021/10/13 02:17:15;;;;;;;;;5.00;4.00;;;;;21.50;44.43;101963.41;5000694;28;45380;-57
2021/10/13 02:19:42;;;;;;;;;4.00;4.00;;;;;21.50;44.55;101963.41;5018564;28;45416;-52
2021/10/13 02:22:08;;;;;;;;;5.00;3.00;;;;;21.50;43.97;101960.78;5018918;28;45933;-53
2021/10/13 02:24:39;;;;;;;;;4.25;3.50;;;;;21.51;44.19;101964.25;5018321;28;46575;-53
2021/10/13 02:27:09;;;;;;;;;3.75;3.75;;;;;21.49;44.33;101966.97;5000405;28;45904;-55
2021/10/13 02:29:37;;;;;;;;;4.00;3.00;;;;;21.50;44.28;101968.69;5018532;28;45410;-53
2021/10/13 02:32:02;;;;;;;;;2.25;2.25;;;;;21.49;44.46;101974.88;5018635;28;45648;-51
2021/10/13 02:34:28;;;;;;;;;3.75;3.75;;;;;21.46;44.22;101975.88;5018385;28;46323;-54
2021/10/13 02:36:53;;;;;;;;;2.00;2.00;;;;;21.50;44.16;101981.03;5018222;28;45379;-53
2021/10/13 02:39:18;;;;;;;;;3.00;3.00;;;;;21.49;44.31;101979.31;5018291;28;45361;-52
2021/10/13 02:41:44;;;;;;;;;3.25;3.00;;;;;21.47;44.13;101977.59;5018406;28;45498;-53
2021/10/13 02:44:09;;;;;;;;;3.75;2.00;;;;;21.49;44.33;101981.94;5016956;28;45388;-52
2021/10/13 02:46:47;;;;;;;;;2.25;2.00;;;;;21.48;44.21;101983.72;5017898;28;45341;-53
2021/10/13 02:49:28;;;;;;;;;2.75;2.00;;;;;21.47;44.30;101977.59;5018169;28;45294;-52
2021/10/13 02:52:03;;;;;;;;;3.00;3.00;;;;;21.47;44.06;101984.63;5018333;28;45409;-53
2021/10/13 02:54:43;;;;;;;;;3.00;2.25;;;;;21.47;44.18;101992.53;5018158;28;45728;-47
2021/10/13 02:57:11;;;;;;;;;2.00;2.00;;;;;21.46;43.93;101991.69;5017962;28;46292;-52
2021/10/13 02:59:41;;;;;;;;;3.25;2.25;;;;;21.46;44.12;101990.81;5017881;28;45448;-50
2021/10/13 03:02:13;;;;;;;;;2.00;2.00;;;;;21.46;44.06;102001.38;5018140;28;45330;-51
2021/10/13 03:04:47;;;;;;;;;2.00;2.00;;;;;21.44;44.19;102004.09;5017510;28;45697;-54
2021/10/13 03:07:18;;;;;;;;;3.00;3.00;;;;;21.45;44.25;101994.38;4999926;28;45470;-52
2021/10/13 03:09:54;;;;;;;;;3.00;3.00;;;;;21.46;44.28;102004.00;5017820;28;45222;-52
2021/10/13 03:12:22;;;;;;;;;2.00;2.00;;;;;21.46;44.17;102009.28;5017998;28;45299;-50
2021/10/13 03:14:50;;;;;;;;;3.00;2.25;;;;;21.45;44.11;102011.06;4999853;28;45511;-48
2021/10/13 03:17:18;;;;;;;;;2.75;2.75;;;;;21.45;44.22;101997.00;5017530;28;45435;-48
2021/10/13 03:19:45;;;;;;;;;3.00;3.00;;;;;21.43;44.03;101989.19;4999696;28;45257;-51
2021/10/13 03:22:13;;;;;;;;;3.00;3.00;;;;;21.44;43.75;102001.44;5017767;28;45499;-51
2021/10/13 03:24:40;;;;;;;;;3.75;3.00;;;;;21.44;44.03;101997.97;5017275;28;46177;-52
2021/10/13 03:27:05;;;;;;;;;4.50;3.00;;;;;21.43;43.79;101996.25;5017273;28;45883;-52
2021/10/13 03:29:30;;;;;;;;;2.00;2.00;;;;;21.43;44.19;102001.53;5017798;28;45336;-50
2021/10/13 03:31:56;;;;;;;;;2.50;2.00;;;;;21.42;43.58;102003.28;5017544;28;45349;-49
2021/10/13 03:34:21;;;;;;;;;1.25;1.25;;;;;21.42;43.89;102008.56;5017010;28;45570;-48
2021/10/13 03:36:48;;;;;;;;;2.00;2.00;;;;;21.42;43.80;102012.97;5017072;28;45309;-50
2021/10/13 03:39:15;;;;;;;;;1.00;1.00;;;;;21.43;43.82;102006.78;5017121;28;45262;-49
2021/10/13 03:41:41;;;;;;;;;2.00;1.50;;;;;21.41;43.68;102012.13;5017508;28;45432;-49
2021/10/13 03:44:07;;;;;;;;;4.25;3.00;;;;;21.43;43.62;102012.06;5017020;28;45409;-48
2021/10/13 03:46:33;;;;;;;;;3.00;2.00;;;;;21.42;43.75;102012.97;5016951;28;45414;-50
2021/10/13 03:48:59;;;;;;;;;3.25;2.50;;;;;21.41;43.80;102014.75;5017188;28;45424;-53
2021/10/13 03:51:24;;;;;;;;;3.75;3.50;;;;;21.41;43.75;102011.25;5017102;28;45526;-50
2021/10/13 03:53:50;;;;;;;;;3.00;2.00;;;;;21.41;43.51;102009.47;5016772;28;45408;-49
2021/10/13 03:56:16;;;;;;;;;2.00;2.00;;;;;21.40;43.98;102007.75;5016640;28;45415;-53
2021/10/13 03:58:42;;;;;;;;;1.00;1.00;;;;;21.41;43.98;102008.63;5017029;28;45460;-55
2021/10/13 04:01:08;;;;;;;;;2.25;2.25;;;;;21.39;43.78;102011.31;5017193;28;45270;-51
2021/10/13 04:03:33;;;;;;;;;1.75;1.75;;;;;21.39;43.85;102015.75;5016400;28;46975;-54
2021/10/13 04:05:59;;;;;;;;;1.75;1.75;;;;;21.41;43.89;102024.44;5016915;28;45366;-52
2021/10/13 04:08:24;;;;;;;;;2.25;1.75;;;;;21.40;43.82;102026.22;5016644;28;45268;-50
2021/10/13 04:10:50;;;;;;;;;3.00;1.00;;;;;21.39;43.82;102021.84;5016857;28;45456;-52
2021/10/13 04:13:15;;;;;;;;;3.00;3.00;;;;;21.38;43.45;102029.84;5016553;28;46637;-49
2021/10/13 04:15:41;;;;;;;;;2.75;2.75;;;;;21.39;43.82;102037.69;5016710;28;45440;-48
2021/10/13 04:18:06;;;;;;;;;4.25;1.00;;;;;21.39;43.58;102032.41;5016635;28;45385;-53
2021/10/13 04:20:31;;;;;;;;;1.00;1.00;;;;;21.39;43.49;102036.84;5017176;28;45488;-50
2021/10/13 04:22:57;;;;;;;;;2.25;2.25;;;;;21.39;43.53;102042.09;5016493;28;46287;-53
2021/10/13 04:25:24;;;;;;;;;3.00;3.00;;;;;21.39;43.44;102042.09;5016744;28;45416;-51
2021/10/13 04:27:49;;;;;;;;;4.00;3.00;;;;;21.39;43.61;102047.38;5016650;28;45428;-51
2021/10/13 04:30:16;;;;;;;;;2.00;2.00;;;;;21.37;43.67;102043.94;5016542;28;45568;-55
2021/10/13 04:32:42;;;;;;;;;2.00;2.00;;;;;21.37;43.26;102054.50;5016187;28;46506;-50
2021/10/13 04:35:08;;;;;;;;;2.00;2.00;;;;;21.36;43.48;102047.50;4998721;28;46024;-50
2021/10/13 04:37:33;;;;;;;;;2.00;2.00;;;;;21.37;43.79;102049.22;5016595;28;45290;-48
2021/10/13 04:39:59;;;;;;;;;2.00;2.00;;;;;21.37;43.83;102059.78;5016903;28;45354;-53
2021/10/13 04:42:24;;;;;;;;;1.25;1.25;;;;;21.36;43.63;102056.28;5016286;28;46487;-49
2021/10/13 04:44:49;;;;;;;;;2.00;2.00;;;;;21.36;43.79;102058.03;5016241;28;45205;-53
2021/10/13 04:47:15;;;;;;;;;3.00;2.75;;;;;21.35;43.82;102061.59;5016320;28;45324;-50
2021/10/13 04:49:40;;;;;;;;;2.75;2.00;;;;;21.34;43.73;102062.50;5016351;28;45187;-49
2021/10/13 04:52:05;;;;;;;;;1.25;1.25;;;;;21.34;43.81;102065.16;5016218;28;46610;-47
2021/10/13 04:54:31;;;;;;;;;0.25;0.25;;;;;21.33;43.40;102074.00;5016461;28;45302;-47
2021/10/13 04:56:56;;;;;;;;;2.00;2.00;;;;;21.32;43.85;102073.13;5016069;28;45373;-47
2021/10/13 04:59:22;;;;;;;;;3.00;2.00;;;;;21.34;43.45;102073.06;4998460;28;45612;-51
2021/10/13 05:01:47;;;;;;;;;2.50;2.50;;;;;21.33;43.53;102077.50;5015865;28;46420;-48
2021/10/13 05:04:12;;;;;;;;;3.00;3.00;;;;;21.32;43.32;102075.78;5015742;28;45419;-48
2021/10/13 05:06:38;;;;;;;;;1.75;1.75;;;;;21.31;43.19;102072.28;5016577;28;45371;-52
2021/10/13 05:09:03;;;;;;;;;1.75;1.75;;;;;21.31;43.44;102068.78;5020051;28;45398;-55
2021/10/13 05:11:28;;;;;;;;;3.50;2.50;;;;;21.27;43.23;102075.13;5019416;28;46675;-50
2021/10/13 05:13:54;;;;;;;;;1.50;1.50;;;;;21.29;43.15;102079.41;5019445;28;45374;-55
2021/10/13 05:16:19;;;;;;;;;2.00;1.25;;;;;21.29;43.52;102078.53;5019666;28;45298;-53
2021/10/13 05:18:45;;;;;;;;;2.25;1.75;;;;;21.29;43.42;102086.44;5019573;28;45626;-56
2021/10/13 05:21:10;;;;;;;;;3.50;2.00;;;;;21.27;43.48;102086.50;5019216;28;45475;-54
2021/10/13 05:23:35;;;;;;;;;3.25;3.00;;;;;21.27;43.28;102090.94;5019664;28;45369;-52
2021/10/13 05:26:01;;;;;;;;;2.00;2.00;;;;;21.28;43.18;102096.13;5001575;28;45376;-52
2021/10/13 05:28:26;;;;;;;;;2.00;2.00;;;;;21.27;43.26;102090.94;5019490;28;45270;-54
2021/10/13 05:30:51;;;;;;;;;2.00;2.00;;;;;21.26;43.64;102090.06;5019140;28;45990;-55
2021/10/13 05:33:17;;;;;;;;;1.75;1.75;;;;;21.27;43.32;102096.22;5019181;28;45437;-54
2021/10/13 05:35:42;;;;;;;;;1.00;1.00;;;;;21.27;43.36;102102.31;5019223;28;45364;-52
2021/10/13 05:38:07;;;;;;;;;2.00;2.00;;;;;21.27;43.35;102096.22;5019607;28;45568;-51
2021/10/13 05:40:33;;;;;;;;;2.00;2.00;;;;;21.26;43.47;102097.13;5019184;28;46307;-49
2021/10/13 05:42:58;;;;;;;;;1.75;1.75;;;;;21.26;43.35;102105.88;5018971;28;45307;-49
2021/10/13 05:45:24;;;;;;;;;1.25;1.00;;;;;21.25;43.52;102101.53;5001014;28;50094;-52
2021/10/13 05:47:49;;;;;;;;;2.00;2.00;;;;;21.26;43.19;102097.97;5019203;28;45336;-53
2021/10/13 05:50:15;;;;;;;;;3.00;2.00;;;;;21.26;43.23;102105.88;5018949;28;45396;-49
2021/10/13 05:52:40;;;;;;;;;2.75;2.00;;;;;21.28;43.19;102109.31;5019062;28;45370;-47
2021/10/13 05:55:06;;;;;;;;;1.00;1.00;;;;;21.26;43.15;102108.50;5001466;28;45371;-56
2021/10/13 05:57:31;;;;;;;;;1.25;1.25;;;;;21.27;43.37;102104.13;5019274;28;45350;-46
2021/10/13 05:59:58;;;;;;;;;2.50;2.50;;;;;21.25;43.60;102100.69;5018723;28;45388;-50
2021/10/13 06:02:25;;;;;;;;;3.25;2.00;;;;;21.24;43.03;102109.50;5018735;28;45791;-53
2021/10/13 06:04:50;;;;;;;;;2.00;2.00;;;;;21.27;43.16;102117.31;5018517;28;45320;-49
2021/10/13 06:07:16;;;;;;;;;1.75;1.75;;;;;21.25;43.22;102114.69;5018993;28;45352;-47
2021/10/13 06:09:41;;;;;;;;;3.00;2.00;;;;;21.26;43.22;102121.69;5018555;28;45378;-51
2021/10/13 06:12:06;;;;;;;;;1.75;1.75;;;;;21.25;43.19;102114.69;5018894;28;45419;-51
2021/10/13 06:14:32;;;;;;;;;0.75;0.75;;;;;21.26;43.05;102110.31;5018757;28;45297;-49
2021/10/13 06:16:57;;;;;;;;;2.00;2.00;;;;;21.25;43.30;102119.97;5018729;28;45500;-49
2021/10/13 06:19:22;;;;;;;;;2.00;2.00;;;;;21.25;43.46;102119.97;5017044;28;45480;-49
2021/10/13 06:21:48;;;;;;;;;2.00;2.00;;;;;21.24;43.04;102118.25;5018469;28;45340;-46
2021/10/13 06:24:13;;;;;;;;;3.00;1.75;;;;;21.25;43.07;102129.69;5018635;28;45438;-47
2021/10/13 06:26:39;;;;;;;;;1.75;1.25;;;;;21.23;43.25;102140.25;5018930;28;45519;-48
2021/10/13 06:29:05;;;;;;;;;2.00;2.00;;;;;21.25;43.38;102141.06;5000777;28;46478;-46
2021/10/13 06:31:30;;;;;;;;;3.00;2.00;;;;;21.23;43.51;102142.91;5018358;28;45357;-55
2021/10/13 06:33:56;;;;;;;;;4.00;2.00;;;;;21.25;42.96;102148.13;4983785;28;45432;-52
2021/10/13 06:36:22;;;;;;;;;1.50;1.25;;;;;21.25;43.44;102153.41;5018639;28;45660;-54
2021/10/13 06:38:47;;;;;;;;;1.25;1.25;;;;;21.23;43.12;102148.16;5018143;28;46645;-51
2021/10/13 06:41:13;;;;;;;;;2.00;2.00;;;;;21.24;43.53;102157.81;5018060;28;45381;-49
2021/10/13 06:43:39;;;;;;;;;1.00;1.00;;;;;21.23;42.88;102161.34;5018621;28;45355;-48
2021/10/13 06:46:05;;;;;;;;;3.00;3.00;;;;;21.24;43.45;102154.31;5018481;28;45749;-49
2021/10/13 06:48:30;;;;;;;;;2.00;2.00;;;;;21.21;43.56;102152.66;5017813;28;45577;-50
2021/10/13 06:50:56;;;;;;;;;3.50;2.50;;;;;21.23;42.94;102156.09;5017934;28;45397;-54
2021/10/13 06:53:21;;;;;;;;;5.00;2.00;;;;;21.22;43.57;102159.63;5017988;28;45449;-54
2021/10/13 06:55:46;;;;;;;;;3.00;1.75;;;;;21.22;43.44;102157.00;5018267;28;45538;-50
2021/10/13 06:58:12;;;;;;;;;3.00;2.00;;;;;21.20;43.50;102153.59;5017774;28;46278;-53
2021/10/13 07:00:38;;;;;;;;;2.00;2.00;;;;;21.20;43.30;102158.84;5018101;28;45374;-55
2021/10/13 07:03:03;;;;;;;;;3.00;2.00;;;;;21.19;43.28;102146.59;5017833;28;45863;-53
2021/10/13 07:05:29;;;;;;;;;2.00;2.00;;;;;21.21;43.13;102162.34;5018067;28;45333;-55
2021/10/13 07:07:54;;;;;;;;;2.00;2.00;;;;;21.20;43.01;102164.13;5017703;28;45549;-55
2021/10/13 07:10:19;;;;;;;;;2.00;1.75;;;;;21.19;43.09;102172.94;5017605;28;45227;-56
2021/10/13 07:12:46;;;;;;;;;2.25;2.25;;;;;21.17;43.02;102182.69;5000030;28;45294;-55
2021/10/13 07:15:12;;;;;;;;;3.00;2.00;;;;;21.18;43.27;102176.50;5018100;28;45274;-48
2021/10/13 07:17:38;;;;;;;;;3.00;2.00;;;;;21.19;42.96;102185.25;5017675;28;46425;-55
2021/10/13 07:20:06;;;;;;;;;3.00;2.50;;;;;21.19;43.00;102178.22;5017505;28;45582;-54
2021/10/13 07:22:32;;;;;;;;;2.00;2.00;;;;;21.21;43.35;102180.78;5017430;28;45457;-53
2021/10/13 07:24:58;;;;;;;;;2.00;2.00;;;;;21.22;42.84;102188.63;5017506;28;45325;-55
2021/10/13 07:27:25;;;;;;;;;4.00;3.00;;;;;21.23;42.82;102186.88;5017321;28;46933;-54
2021/10/13 07:30:02;;;;;;;;;4.75;3.25;;;;;21.22;43.12;102187.78;5016677;28;45294;-54
2021/10/13 07:32:31;;;;;;;;;5.25;3.00;;;;;21.24;42.97;102196.50;5017187;28;45395;-54
2021/10/13 07:34:57;;;;;;;;;3.50;3.50;;;;;21.16;42.88;102194.16;5017610;28;45442;-55
2021/10/13 07:37:23;;;;;;;;;2.00;2.00;;;;;21.23;42.48;102206.19;5017186;28;46662;-54
2021/10/13 07:39:48;;;;;;;;;4.75;2.00;;;;;21.19;42.57;102198.44;5017272;28;45250;-52
2021/10/13 07:42:17;;;;;;;;;4.25;3.00;;;;;21.22;42.75;102200.97;4999571;28;45263;-53
2021/10/13 07:44:44;;;;;;;;;2.00;2.00;;;;;21.22;42.72;102200.97;5017642;28;45470;-49
2021/10/13 07:47:10;;;;;;;;;3.00;3.00;;;;;21.24;42.85;102202.63;5017313;28;46294;-54
2021/10/13 07:49:36;;;;;;;;;4.75;3.50;;;;;21.24;42.48;102201.78;5017061;28;45285;-54
2021/10/13 07:52:02;;;;;;;;;3.00;3.00;;;;;21.24;42.53;102207.91;5017161;28;45409;-55
2021/10/13 07:54:27;;;;;;;;;4.25;3.00;;;;;21.24;42.31;102210.53;4996225;28;45522;-48
2021/10/13 07:56:53;;;;;;;;;5.00;2.00;;;;;21.23;42.55;102202.69;5015257;28;45381;-50
2021/10/13 07:59:18;;;;;;;;;4.50;3.00;;;;;21.25;42.45;102209.63;5016543;28;45183;-49
2021/10/13 08:01:43;;;;;;;;;2.25;2.25;;;;;21.23;42.37;102205.34;5016710;28;45234;-47
2021/10/13 08:04:09;;;;;;;;;3.25;2.75;;;;;21.24;42.37;102213.19;5017148;28;45583;-49
2021/10/13 08:06:34;;;;;;;;;4.00;3.25;;;;;21.24;42.24;102210.53;5030920;28;47169;-49
2021/10/13 08:08:59;;;;;;;;;4.25;3.00;;;;;21.24;42.33;102213.19;5015724;28;45326;-50
2021/10/13 08:11:26;;;;;;;;;3.25;3.25;;;;;21.22;42.09;102209.72;5016391;28;45415;-49
2021/10/13 08:13:52;;;;;;;;;4.50;3.00;;;;;21.25;42.18;102212.25;5016258;28;45202;-46
2021/10/13 08:16:17;;;;;;;;;4.50;3.00;;;;;21.25;42.01;102220.19;4998462;28;47343;-48
2021/10/13 08:18:43;;;;;;;;;3.00;2.75;;;;;21.26;41.94;102215.78;5016607;28;45377;-47
2021/10/13 08:21:09;;;;;;;;;3.00;3.00;;;;;21.26;42.17;102219.25;4998757;28;45484;-49
2021/10/13 08:23:34;;;;;;;;;3.25;2.00;;;;;21.25;41.91;102216.69;5016450;28;45424;-49
2021/10/13 08:26:00;;;;;;;;;2.00;2.00;;;;;21.25;41.83;102214.91;5016018;28;46190;-48
2021/10/13 08:28:27;;;;;;;;;4.00;4.00;;;;;21.25;42.01;102220.19;5015963;28;45384;-48
2021/10/13 08:30:53;;;;;;;;;4.00;4.00;;;;;21.27;41.47;102213.06;5016539;28;45310;-48
2021/10/13 08:33:19;;;;;;;;;5.00;3.00;;;;;21.25;41.53;102214.91;5015988;28;45488;-49
2021/10/13 08:35:44;;;;;;;;;3.25;2.00;;;;;21.27;41.88;102217.50;5016265;28;45500;-50
2021/10/13 08:38:10;;;;;;;;;3.50;2.50;;;;;21.27;41.89;102223.63;5015493;28;45321;-47
2021/10/13 08:40:35;;;;;;;;;2.75;2.50;;;;;21.27;41.56;102223.63;5014963;28;45315;-47
2021/10/13 08:43:03;;;;;;;;;2.00;2.00;;;;;21.27;41.62;102223.63;5014526;28;45383;-48
2021/10/13 08:45:30;;;;;;;;;5.00;3.50;;;;;21.26;41.44;102224.53;5016018;28;46478;-48
2021/10/13 08:47:56;;;;;;;;;5.00;3.00;;;;;21.28;41.31;102225.34;5016161;28;45455;-49
2021/10/13 08:50:23;;;;;;;;;2.75;2.25;;;;;21.27;41.46;102231.53;5015975;28;45344;-48
2021/10/13 08:52:52;;;;;;;;;3.50;3.50;;;;;21.28;41.53;102235.00;5016029;28;45353;-48
2021/10/13 08:55:17;;;;;;;;;5.75;3.00;;;;;21.28;41.21;102227.97;5015186;28;46257;-48
2021/10/13 08:57:43;;;;;;;;;2.25;2.25;;;;;21.29;41.13;102236.75;5012281;28;45367;-47
2021/10/13 09:00:08;;;;;;;;;4.00;4.00;;;;;21.29;41.08;102234.97;5015361;28;45537;-49
2021/10/13 09:02:42;;;;;;;;;5.00;3.25;;;;;21.29;40.77;102236.75;5016000;28;45481;-50
2021/10/13 09:05:13;;;;;;;;;2.75;2.75;;;;;21.29;41.05;102242.91;5015760;28;46416;-48
2021/10/13 09:07:53;;;;;;;;;5.75;3.50;;;;;21.28;40.65;102240.28;5015634;28;45685;-47
2021/10/13 09:10:29;;;;;;;;;2.75;2.75;;;;;21.30;41.03;102235.81;5015480;28;45455;-48
2021/10/13 09:12:56;;;;;;;;;4.50;4.50;;;;;21.28;40.98;102230.63;5015355;28;45583;-49
2021/10/13 09:15:26;;;;;;;;;2.00;2.00;;;;;21.27;40.83;102231.53;5015555;28;47096;-47
2021/10/13 09:17:53;;;;;;;;;3.00;2.25;;;;;21.29;40.61;102234.97;5015790;28;45207;-49
2021/10/13 09:20:21;;;;;;;;;4.25;3.75;;;;;21.30;40.48;102241.09;5015413;28;45408;-48
2021/10/13 09:23:03;;;;;;;;;2.75;2.00;;;;;21.31;40.70;102238.44;5016047;28;45362;-48
2021/10/13 09:25:30;;;;;;;;;5.50;4.00;;;;;21.30;40.59;102238.47;5014719;28;46176;-55
2021/10/13 09:27:56;;;;;;;;;4.00;3.00;;;;;21.30;40.90;102243.75;5015306;28;45864;-55
2021/10/13 09:30:35;;;;;;;;;6.25;2.75;;;;;21.30;40.64;102234.06;5015651;28;45309;-53
2021/10/13 09:33:11;;;;;;;;;4.50;3.00;;;;;21.33;40.30;102243.63;5016029;28;45369;-53
2021/10/13 09:35:41;;;;;;;;;3.50;3.50;;;;;21.32;40.22;102241.91;5015357;28;46313;-55
2021/10/13 09:38:07;;;;;;;;;3.00;3.00;;;;;21.32;40.24;102241.91;5015623;28;45799;-53
2021/10/13 09:40:34;;;;;;;;;4.00;3.00;;;;;21.31;40.36;102246.34;5015714;28;45461;-54
2021/10/13 09:43:00;;;;;;;;;5.50;3.25;;;;;21.31;40.53;102233.16;5015736;28;45507;-52
2021/10/13 09:45:28;;;;;;;;;3.00;2.00;;;;;21.32;40.20;102241.91;5015362;28;46419;-53
2021/10/13 09:47:58;;;;;;;;;4.50;4.00;;;;;21.31;40.18;102241.06;4997730;28;45361;-54
2021/10/13 09:50:43;;;;;;;;;3.00;3.00;;;;;21.34;40.03;102249.75;5015628;28;45294;-53
2021/10/13 09:53:22;;;;;;;;;4.00;2.00;;;;;21.35;40.01;102241.81;5017086;28;45420;-53
2021/10/13 09:55:49;;;;;;;;;3.00;2.25;;;;;21.31;40.18;102242.81;5018990;28;46544;-48
2021/10/13 09:58:27;;;;;;;;;6.00;2.25;;;;;21.36;40.34;102255.84;5019211;28;45904;-49
2021/10/13 10:01:08;;;;;;;;;3.00;3.00;;;;;21.35;39.99;102247.09;5001043;28;45435;-53
2021/10/13 10:03:40;;;;;;;;;3.00;2.00;;;;;21.36;40.08;102256.72;5018727;28;45431;-51
2021/10/13 10:06:07;;;;;;;;;2.25;1.00;;;;;21.37;40.14;102249.66;5018612;28;46204;-55
2021/10/13 10:08:57;;;;;;;;;5.00;3.00;;;;;21.37;40.19;102254.94;5018483;28;45211;-57
2021/10/13 10:11:37;;;;;;;;;2.00;2.00;;;;;21.36;39.92;102259.34;5018749;28;45324;-52
2021/10/13 10:14:31;;;;;;;;;3.25;2.00;;;;;21.34;39.45;102249.75;5018970;28;45369;-55
2021/10/13 10:16:57;;;;;;;;;4.00;4.00;;;;;21.34;39.76;102260.31;5017208;28;46483;-54
2021/10/13 10:19:27;;;;;;;;;4.00;3.50;;;;;21.31;39.65;102251.63;5018518;28;45381;-55
2021/10/13 10:22:10;;;;;;;;;3.50;2.25;;;;;21.33;40.08;102253.34;5018730;28;45378;-57
2021/10/13 10:24:37;;;;;;;;;4.00;3.00;;;;;21.33;39.95;102253.34;5000294;28;45341;-55
2021/10/13 10:27:23;;;;;;;;;3.75;3.75;;;;;21.34;39.49;102257.66;5018270;28;45564;-53
2021/10/13 10:30:09;;;;;;;;;2.25;2.00;;;;;21.34;39.43;102255.03;5018739;28;45451;-52
2021/10/13 10:32:36;;;;;;;;;5.25;2.00;;;;;21.34;39.27;102255.91;5010940;28;45413;-54
2021/10/13 10:35:04;;;;;;;;;3.00;3.00;;;;;21.35;39.42;102252.34;5018697;28;45262;-55
2021/10/13 10:37:50;;;;;;;;;3.00;3.00;;;;;21.34;39.30;102244.47;5018046;28;46569;-52
2021/10/13 10:40:15;;;;;;;;;3.00;3.00;;;;;21.33;39.49;102256.81;5018693;28;45380;-56
2021/10/13 10:42:49;;;;;;;;;4.00;3.00;;;;;21.34;39.18;102249.75;5000350;28;45274;-52
2021/10/13 10:45:21;;;;;;;;;4.00;2.75;;;;;21.34;39.15;102255.91;5018579;28;45599;-56
2021/10/13 10:47:49;;;;;;;;;3.50;2.25;;;;;21.33;39.31;102242.78;5018188;28;45852;-55
2021/10/13 10:50:26;;;;;;;;;4.00;2.50;;;;;21.34;38.88;102233.94;5018331;28;45372;-47
2021/10/13 10:53:20;;;;;;;;;2.75;2.75;;;;;21.35;39.10;102240.94;5018213;28;45336;-54
2021/10/13 10:55:47;;;;;;;;;2.00;2.00;;;;;21.31;39.37;102230.50;5018593;28;45452;-54
2021/10/13 10:58:31;;;;;;;;;3.50;2.25;;;;;21.32;38.69;102241.91;5017614;28;46759;-54
2021/10/13 11:01:05;;;;;;;;;3.25;2.00;;;;;21.34;38.57;102247.13;4999825;28;45720;-51
2021/10/13 11:03:36;;;;;;;;;2.75;2.00;;;;;21.33;38.79;102248.91;5017762;28;45863;-54
2021/10/13 11:06:28;;;;;;;;;2.25;2.25;;;;;21.37;38.83;102250.53;5017195;28;45560;-49
2021/10/13 11:09:04;;;;;;;;;3.00;3.00;;;;;21.41;38.79;102243.38;5012871;28;46152;-54
2021/10/13 11:11:41;;;;;;;;;3.00;3.00;;;;;21.46;39.12;102249.31;5012907;28;45984;-48
2021/10/13 11:14:12;;;;;;;;;1.00;1.00;;;;;21.51;39.13;102249.13;5016794;28;45403;-48
2021/10/13 11:16:51;;;;;;;;;4.50;3.00;;;;;21.57;39.18;102257.69;5017483;28;45322;-50
2021/10/13 11:19:27;;;;;;;;;2.25;2.00;;;;;21.63;39.09;102251.34;5016881;28;47340;-49
2021/10/13 11:22:08;;;;;;;;;4.25;2.00;;;;;21.68;39.04;102259.97;5017297;28;45510;-50
2021/10/13 11:24:39;;;;;;;;;4.00;3.75;;;;;21.73;38.89;102259.78;5016771;28;45409;-48
2021/10/13 11:27:05;;;;;;;;;2.00;2.00;;;;;21.79;38.70;102262.19;5017283;28;45582;-48
2021/10/13 11:29:33;;;;;;;;;1.25;1.25;;;;;21.82;39.12;102264.72;5017087;28;45503;-51
2021/10/13 11:32:16;;;;;;;;;1.25;1.00;;;;;21.87;39.20;102259.25;5016392;28;45364;-50